Aviation Digital Data Service (ADDS)

Output produced by METARs form (1221 UTC 28 July 2014)
found at http://aviationweather.gov/adds/metars/
 
KATL 281121Z 2812/2918 26009KT P6SM VCSH SCT025 BKN050 
     TEMPO 2812/2814 6SM -SHRA BKN025 
     FM281400 29010G18KT P6SM SCT050 BKN080 
     FM281700 31012G20KT P6SM SCT100 
     FM290100 32009KT P6SM SKC 
     FM291400 34010G18KT P6SM FEW250